createdAt,value
2017-11-22T00:01:44.031Z,5.40
2017-11-22T00:04:11.629Z,5.30
2017-11-22T00:06:38.954Z,6.33
2017-11-22T00:09:06.278Z,7.10
2017-11-22T00:11:34.008Z,6.77
2017-11-22T00:14:01.678Z,5.70
2017-11-22T00:16:29.357Z,5.67
2017-11-22T00:18:56.683Z,5.83
2017-11-22T00:21:24.011Z,5.50
2017-11-22T00:23:51.616Z,5.93
2017-11-22T00:26:18.945Z,5.07
2017-11-22T00:28:46.620Z,5.50
2017-11-22T00:31:14.301Z,4.93
2017-11-22T00:33:42.060Z,4.40
2017-11-22T00:36:09.349Z,4.93
2017-11-22T00:38:36.989Z,4.83
2017-11-22T00:41:04.735Z,4.50
2017-11-22T00:43:32.056Z,4.70
2017-11-22T00:45:59.359Z,5.07
2017-11-22T00:48:26.731Z,4.87
2017-11-22T00:50:54.103Z,4.70
2017-11-22T00:53:21.431Z,4.67
2017-11-22T00:55:49.049Z,5.20
2017-11-22T00:58:16.734Z,4.77
2017-11-22T01:00:44.038Z,5.60
2017-11-22T01:03:11.369Z,5.13
2017-11-22T01:05:38.824Z,4.77
2017-11-22T01:08:06.450Z,4.87
2017-11-22T01:10:33.824Z,5.17
2017-11-22T01:13:01.160Z,4.80
2017-11-22T01:15:28.530Z,4.97
2017-11-22T01:17:55.886Z,4.53
2017-11-22T01:20:23.629Z,5.00
2017-11-22T01:22:51.314Z,4.97
2017-11-22T01:25:18.973Z,5.00
2017-11-22T01:27:46.597Z,5.20
2017-11-22T01:30:14.292Z,5.10
2017-11-22T01:32:41.991Z,5.30
2017-11-22T01:35:09.313Z,5.40
2017-11-22T01:37:36.957Z,4.80
2017-11-22T01:40:04.279Z,4.13
2017-11-22T01:42:31.832Z,4.67
2017-11-22T01:44:59.153Z,5.93
2017-11-22T01:47:26.790Z,5.30
2017-11-22T01:49:54.120Z,5.37
2017-11-22T01:52:21.777Z,5.00
2017-11-22T01:54:49.453Z,5.87
2017-11-22T01:57:17.139Z,5.00
2017-11-22T01:59:44.437Z,5.70
2017-11-22T02:02:11.952Z,5.90
2017-11-22T02:04:39.642Z,6.97
2017-11-22T02:07:07.281Z,6.00
2017-11-22T02:09:34.916Z,6.20
2017-11-22T02:12:02.263Z,7.27
2017-11-22T02:14:29.561Z,7.37
2017-11-22T02:16:56.906Z,8.70
2017-11-22T02:19:24.539Z,8.27
2017-11-22T02:21:52.229Z,8.40
2017-11-22T02:24:19.891Z,8.83
2017-11-22T02:26:47.555Z,9.30
2017-11-22T02:29:15.212Z,8.80
2017-11-22T02:31:42.668Z,9.67
2017-11-22T02:34:10.327Z,9.17
2017-11-22T02:36:37.985Z,9.50
2017-11-22T02:39:05.741Z,8.30
2017-11-22T02:41:33.066Z,8.77
2017-11-22T02:44:00.400Z,8.90
2017-11-22T02:46:27.698Z,8.00
2017-11-22T02:48:55.847Z,7.97
2017-11-22T02:51:23.235Z,6.50
2017-11-22T02:53:50.912Z,6.47
2017-11-22T02:56:18.542Z,6.53
2017-11-22T02:58:45.907Z,6.47
2017-11-22T03:01:13.206Z,6.37
2017-11-22T03:03:40.531Z,6.10
2017-11-22T03:06:08.158Z,6.30
2017-11-22T03:08:35.746Z,7.20
2017-11-22T03:11:03.052Z,7.47
2017-11-22T03:13:30.853Z,8.07
2017-11-22T03:15:58.186Z,8.77
2017-11-22T03:18:25.841Z,8.20
2017-11-22T03:20:53.166Z,9.90
2017-11-22T03:23:20.478Z,11.27
2017-11-22T03:25:48.157Z,11.40
2017-11-22T03:28:15.514Z,11.60
2017-11-22T03:30:43.186Z,12.40
2017-11-22T03:33:10.831Z,11.33
2017-11-22T03:35:38.486Z,12.10
2017-11-22T03:38:06.162Z,11.93
2017-11-22T03:40:33.805Z,11.30
2017-11-22T03:43:01.460Z,13.73
2017-11-22T03:45:29.244Z,14.30
2017-11-22T03:47:56.873Z,13.60
2017-11-22T03:50:30.145Z,15.70
2017-11-22T03:53:03.421Z,12.83
2017-11-22T03:55:30.830Z,12.50
2017-11-22T03:57:58.909Z,13.70
2017-11-22T04:00:29.368Z,14.03
2017-11-22T04:03:02.465Z,13.10
2017-11-22T04:05:32.710Z,12.40
2017-11-22T04:08:00.601Z,12.13
2017-11-22T04:10:27.913Z,13.27
2017-11-22T04:12:55.334Z,15.03
2017-11-22T04:15:22.986Z,14.13
2017-11-22T04:17:54.631Z,12.53
2017-11-22T04:20:27.657Z,13.90
2017-11-22T04:22:55.008Z,13.80
2017-11-22T04:25:22.628Z,12.97
2017-11-22T04:27:50.017Z,13.53
2017-11-22T04:30:17.640Z,14.00
2017-11-22T04:32:44.972Z,13.87
2017-11-22T04:35:12.367Z,14.43
2017-11-22T04:37:40.057Z,14.70
2017-11-22T04:40:07.692Z,13.87
2017-11-22T04:42:35.374Z,13.50
2017-11-22T04:45:02.780Z,14.17
2017-11-22T04:47:30.165Z,13.77
2017-11-22T04:49:57.526Z,14.07
2017-11-22T04:52:25.185Z,13.37
2017-11-22T04:54:52.863Z,14.10
2017-11-22T04:57:20.490Z,14.30
2017-11-22T04:59:47.830Z,14.20
2017-11-22T05:02:15.142Z,14.60
2017-11-22T05:04:42.466Z,14.53
2017-11-22T05:07:10.097Z,14.57
2017-11-22T05:09:37.478Z,13.10
2017-11-22T05:12:04.811Z,14.90
2017-11-22T05:14:32.133Z,12.90
2017-11-22T05:16:59.538Z,13.60
2017-11-22T05:19:26.868Z,12.50
2017-11-22T05:21:54.308Z,13.13
2017-11-22T05:24:21.943Z,12.27
2017-11-22T05:26:49.309Z,13.23
2017-11-22T05:29:16.756Z,11.77
2017-11-22T05:31:44.077Z,10.80
2017-11-22T05:34:11.727Z,11.60
2017-11-22T05:36:39.061Z,13.37
2017-11-22T05:39:06.449Z,12.27
2017-11-22T05:41:34.102Z,12.80
2017-11-22T05:44:01.413Z,11.37
2017-11-22T05:46:28.831Z,12.53
2017-11-22T05:48:56.505Z,11.63
2017-11-22T05:51:23.840Z,13.83
2017-11-22T05:53:51.483Z,12.37
2017-11-22T05:56:18.841Z,12.47
2017-11-22T05:58:46.168Z,12.43
2017-11-22T06:01:13.853Z,12.90
2017-11-22T06:03:41.238Z,13.40
2017-11-22T06:06:08.616Z,12.87
2017-11-22T06:08:36.012Z,12.80
2017-11-22T06:11:03.376Z,12.23
2017-11-22T06:13:30.713Z,11.47
2017-11-22T06:15:58.148Z,12.90
2017-11-22T06:18:25.514Z,12.20
2017-11-22T06:20:52.895Z,11.03
2017-11-22T06:23:20.241Z,12.30
2017-11-22T06:25:47.559Z,12.57
2017-11-22T06:28:14.941Z,12.73
2017-11-22T06:30:47.213Z,11.87
2017-11-22T06:33:14.821Z,11.07
2017-11-22T06:35:42.491Z,10.37
2017-11-22T06:38:09.871Z,11.40
2017-11-22T06:40:37.161Z,10.80
2017-11-22T06:43:04.555Z,11.50
2017-11-22T06:45:31.878Z,11.10
2017-11-22T06:47:59.569Z,11.73
2017-11-22T06:50:26.928Z,11.40
2017-11-22T06:52:54.382Z,11.90
2017-11-22T06:55:21.752Z,10.93
2017-11-22T06:57:49.058Z,11.17
2017-11-22T07:00:16.837Z,12.20
2017-11-22T07:02:47.148Z,11.10
2017-11-22T07:05:14.635Z,12.13
2017-11-22T07:07:41.959Z,12.20
2017-11-22T07:10:09.637Z,10.80
2017-11-22T07:12:36.962Z,11.37
2017-11-22T07:15:04.282Z,12.20
2017-11-22T07:17:33.417Z,12.87
2017-11-22T07:20:00.731Z,13.47
2017-11-22T07:22:28.334Z,12.40
2017-11-22T07:24:55.658Z,12.07
2017-11-22T07:27:23.092Z,11.80
2017-11-22T07:29:50.465Z,12.57
2017-11-22T07:32:17.777Z,12.50
2017-11-22T07:34:45.430Z,12.53
2017-11-22T07:37:18.945Z,13.57
2017-11-22T07:39:46.277Z,15.53
2017-11-22T07:42:13.948Z,14.10
2017-11-22T07:44:41.576Z,13.50
2017-11-22T07:47:11.730Z,13.00
2017-11-22T07:49:39.086Z,13.57
2017-11-22T07:52:12.626Z,12.50
2017-11-22T07:54:40.415Z,11.80
2017-11-22T07:57:10.569Z,13.00
2017-11-22T07:59:38.077Z,13.37
2017-11-22T08:02:05.404Z,11.37
2017-11-22T08:04:32.755Z,11.80
2017-11-22T08:07:00.069Z,13.40
2017-11-22T08:09:27.393Z,12.20
2017-11-22T08:11:55.065Z,12.37
2017-11-22T08:14:22.793Z,12.90
2017-11-22T08:16:50.108Z,14.23
2017-11-22T08:19:17.780Z,12.67
2017-11-22T08:21:45.996Z,13.27
2017-11-22T08:24:13.706Z,12.10
2017-11-22T08:26:41.353Z,13.03
2017-11-22T08:29:09.072Z,11.90
2017-11-22T08:31:36.798Z,13.83
2017-11-22T08:34:04.455Z,12.27
2017-11-22T08:36:31.814Z,12.00
2017-11-22T08:38:59.482Z,11.77
2017-11-22T08:41:27.379Z,12.20
2017-11-22T08:43:55.634Z,11.30
2017-11-22T08:46:23.304Z,12.50
2017-11-22T08:48:50.718Z,10.77
2017-11-22T08:51:18.052Z,11.23
2017-11-22T08:53:45.761Z,10.53
2017-11-22T08:56:19.286Z,11.40
2017-11-22T08:58:46.603Z,10.87
2017-11-22T09:01:14.271Z,10.00
2017-11-22T09:03:44.838Z,9.40
2017-11-22T09:06:18.360Z,10.40
2017-11-22T09:08:46.032Z,9.90
2017-11-22T09:11:13.827Z,10.90
2017-11-22T09:13:41.467Z,9.10
2017-11-22T09:16:08.783Z,8.63
2017-11-22T09:18:38.266Z,10.00
2017-11-22T09:21:05.730Z,9.10
2017-11-22T09:23:33.051Z,9.47
2017-11-22T09:26:00.735Z,10.30
2017-11-22T09:28:28.370Z,10.40
2017-11-22T09:30:55.685Z,9.93
2017-11-22T09:33:25.420Z,8.23
2017-11-22T09:35:52.722Z,8.00
2017-11-22T09:38:20.037Z,9.90
2017-11-22T09:40:47.502Z,9.17
2017-11-22T09:43:15.256Z,8.20
2017-11-22T09:45:42.907Z,9.40
2017-11-22T09:48:10.589Z,9.30
2017-11-22T09:50:38.237Z,9.90
2017-11-22T09:53:05.568Z,10.07
2017-11-22T09:55:33.249Z,9.77
2017-11-22T09:58:00.581Z,9.43
2017-11-22T10:00:27.952Z,10.30
2017-11-22T10:02:55.325Z,10.10
2017-11-22T10:05:22.970Z,10.27
2017-11-22T10:07:50.397Z,9.67
2017-11-22T10:10:18.086Z,9.70
2017-11-22T10:12:45.410Z,9.27
2017-11-22T10:15:12.978Z,9.00
2017-11-22T10:17:40.710Z,9.60
2017-11-22T10:20:08.351Z,9.23
2017-11-22T10:22:41.766Z,9.57
2017-11-22T10:25:09.819Z,8.90
2017-11-22T10:27:37.465Z,9.13
2017-11-22T10:30:10.724Z,8.70
2017-11-22T10:32:38.441Z,8.53
2017-11-22T10:35:06.155Z,7.83
2017-11-22T10:37:33.843Z,9.20
2017-11-22T10:40:01.189Z,8.67
2017-11-22T10:42:28.511Z,8.80
2017-11-22T10:44:56.283Z,8.27
2017-11-22T10:47:23.982Z,8.23
2017-11-22T10:49:51.652Z,8.40
2017-11-22T10:52:19.310Z,8.40
2017-11-22T10:54:47.009Z,7.53
2017-11-22T10:57:14.375Z,8.00
2017-11-22T10:59:41.669Z,9.37
2017-11-22T11:02:09.010Z,8.53
2017-11-22T11:04:36.679Z,7.47
2017-11-22T11:07:04.011Z,8.17
2017-11-22T11:09:31.688Z,8.70
2017-11-22T11:11:59.070Z,7.77
2017-11-22T11:14:26.413Z,8.07
2017-11-22T11:16:54.079Z,7.50
2017-11-22T11:19:21.726Z,7.33
2017-11-22T11:21:49.043Z,7.40
2017-11-22T11:24:16.755Z,8.07
2017-11-22T11:26:44.508Z,7.80
2017-11-22T11:29:11.838Z,8.00
2017-11-22T11:31:39.151Z,8.20
2017-11-22T11:34:06.787Z,8.00
2017-11-22T11:36:34.478Z,7.60
2017-11-22T11:39:02.113Z,8.17
2017-11-22T11:41:29.783Z,10.80
2017-11-22T11:43:57.146Z,7.90
2017-11-22T11:46:24.763Z,7.93
2017-11-22T11:48:52.466Z,8.33
2017-11-22T11:51:19.808Z,10.33
2017-11-22T11:53:47.162Z,8.23
2017-11-22T11:56:14.793Z,7.17
2017-11-22T11:58:42.412Z,7.57
2017-11-22T12:01:09.729Z,8.37
2017-11-22T12:03:37.263Z,8.70
2017-11-22T12:06:04.683Z,8.30
2017-11-22T12:08:32.019Z,7.53
2017-11-22T12:10:59.686Z,7.80
2017-11-22T12:13:27.348Z,8.67
2017-11-22T12:15:54.711Z,8.13
2017-11-22T12:18:22.372Z,8.47
2017-11-22T12:21:04.833Z,7.47
2017-11-22T12:23:36.196Z,8.53
2017-11-22T12:26:03.709Z,7.83
2017-11-22T12:28:31.048Z,7.80
2017-11-22T12:30:58.858Z,7.67
2017-11-22T12:33:26.228Z,7.87
2017-11-22T12:35:53.561Z,8.20
2017-11-22T12:38:24.021Z,7.90
2017-11-22T12:40:51.754Z,7.40
2017-11-22T12:43:19.195Z,7.67
2017-11-22T12:45:46.873Z,8.63
2017-11-22T12:48:14.660Z,7.50
2017-11-22T12:50:41.968Z,8.10
2017-11-22T12:53:09.778Z,7.90
2017-11-22T12:55:37.423Z,7.97
2017-11-22T12:58:14.424Z,7.87
2017-11-22T13:00:42.072Z,7.60
2017-11-22T13:03:09.401Z,7.13
2017-11-22T13:05:36.740Z,7.50
2017-11-22T13:08:04.145Z,7.23
2017-11-22T13:10:33.533Z,8.00
2017-11-22T13:13:00.921Z,8.27
2017-11-22T13:15:28.443Z,7.90
2017-11-22T13:17:55.805Z,7.60
2017-11-22T13:20:23.116Z,8.33
2017-11-22T13:22:50.428Z,7.53
2017-11-22T13:25:18.079Z,8.43
2017-11-22T13:27:45.744Z,7.80
2017-11-22T13:30:13.429Z,7.10
2017-11-22T13:32:41.055Z,8.23
2017-11-22T13:35:08.809Z,7.83
2017-11-22T13:37:36.532Z,8.00
2017-11-22T13:40:04.147Z,7.90
2017-11-22T13:42:31.444Z,7.50
2017-11-22T13:44:58.769Z,8.90
2017-11-22T13:47:26.403Z,8.10
2017-11-22T13:49:54.081Z,8.00
2017-11-22T13:52:22.308Z,8.83
2017-11-22T13:54:49.965Z,8.73
2017-11-22T13:57:17.253Z,8.50
2017-11-22T13:59:44.554Z,8.50
2017-11-22T14:02:11.990Z,8.87
2017-11-22T14:04:39.617Z,9.37
2017-11-22T14:07:07.293Z,8.10
2017-11-22T14:09:34.598Z,8.70
2017-11-22T14:12:01.939Z,8.60
2017-11-22T14:14:29.569Z,8.43
2017-11-22T14:16:56.894Z,8.97
2017-11-22T14:19:24.604Z,9.00
2017-11-22T14:21:52.159Z,9.57
2017-11-22T14:24:19.792Z,8.97
2017-11-22T14:26:47.471Z,9.20
2017-11-22T14:29:15.126Z,8.40
2017-11-22T14:31:42.445Z,8.63
2017-11-22T14:34:09.749Z,8.00
2017-11-22T14:36:37.399Z,9.13
2017-11-22T14:39:04.736Z,9.93
2017-11-22T14:41:32.470Z,8.50
2017-11-22T14:44:00.174Z,9.00
2017-11-22T14:46:27.488Z,7.63
2017-11-22T14:48:55.186Z,8.50
2017-11-22T14:51:22.533Z,8.10
2017-11-22T14:53:49.869Z,9.50
2017-11-22T14:56:17.575Z,8.30
2017-11-22T14:58:45.234Z,8.50
2017-11-22T15:01:12.883Z,8.40
2017-11-22T15:03:40.208Z,8.10
2017-11-22T15:06:07.913Z,9.20
2017-11-22T15:08:35.570Z,9.37
2017-11-22T15:11:03.203Z,9.60
2017-11-22T15:13:31.004Z,9.60
2017-11-22T15:15:58.388Z,10.17
2017-11-22T15:18:25.713Z,10.20
2017-11-22T15:20:53.351Z,10.47
2017-11-22T15:23:20.709Z,11.20
2017-11-22T15:25:48.488Z,10.67
2017-11-22T15:28:16.652Z,12.60
2017-11-22T15:30:44.375Z,10.67
2017-11-22T15:33:11.770Z,11.60
2017-11-22T15:35:39.109Z,10.63
2017-11-22T15:38:06.491Z,11.47
2017-11-22T15:40:34.153Z,10.40
2017-11-22T15:43:01.806Z,11.80
2017-11-22T15:45:29.148Z,11.60
2017-11-22T15:47:56.471Z,11.50
2017-11-22T15:50:23.926Z,12.50
2017-11-22T15:52:51.636Z,12.40
2017-11-22T15:55:19.332Z,10.50
2017-11-22T15:57:46.668Z,12.30
2017-11-22T16:00:14.328Z,12.53
2017-11-22T16:02:41.970Z,11.50
2017-11-22T16:05:09.306Z,11.83
2017-11-22T16:07:36.673Z,10.07
2017-11-22T16:10:04.006Z,10.97
2017-11-22T16:12:31.407Z,11.60
2017-11-22T16:14:59.076Z,11.90
2017-11-22T16:17:26.709Z,10.70
2017-11-22T16:19:54.025Z,10.53
2017-11-22T16:22:21.779Z,9.63
2017-11-22T16:24:49.083Z,11.43
2017-11-22T16:27:16.410Z,10.70
2017-11-22T16:29:43.788Z,11.03
2017-11-22T16:32:11.224Z,10.30
2017-11-22T16:34:38.603Z,10.40
2017-11-22T16:37:06.265Z,11.00
2017-11-22T16:39:33.941Z,10.30
2017-11-22T16:42:01.651Z,12.07
2017-11-22T16:44:29.033Z,10.30
2017-11-22T16:46:56.374Z,10.70
2017-11-22T16:49:23.755Z,11.50
2017-11-22T16:51:51.451Z,11.00
2017-11-22T16:54:18.878Z,11.40
2017-11-22T16:56:46.543Z,10.20
2017-11-22T16:59:14.170Z,9.77
2017-11-22T17:01:41.856Z,10.67
2017-11-22T17:04:09.505Z,11.50
2017-11-22T17:06:36.809Z,11.17
2017-11-22T17:09:04.154Z,10.63
2017-11-22T17:11:31.690Z,11.53
2017-11-22T17:13:59.072Z,10.87
2017-11-22T17:16:26.399Z,10.77
2017-11-22T17:18:53.776Z,10.37
2017-11-22T17:21:21.506Z,10.97
2017-11-22T17:23:48.838Z,11.10
2017-11-22T17:26:16.516Z,11.40
2017-11-22T17:28:43.863Z,10.60
2017-11-22T17:31:11.173Z,11.20
2017-11-22T17:33:38.523Z,10.67
2017-11-22T17:36:06.125Z,11.10
2017-11-22T17:38:33.550Z,11.30
2017-11-22T17:41:00.856Z,12.37
2017-11-22T17:43:28.244Z,11.63
2017-11-22T17:45:55.603Z,11.40
2017-11-22T17:48:22.925Z,11.07
2017-11-22T17:50:50.418Z,11.17
2017-11-22T17:53:18.114Z,10.80
2017-11-22T17:55:45.843Z,11.27
2017-11-22T17:58:13.155Z,11.07
2017-11-22T18:00:40.479Z,10.80
2017-11-22T18:03:08.157Z,10.53
2017-11-22T18:05:35.567Z,10.80
2017-11-22T18:08:02.869Z,10.90
2017-11-22T18:10:30.197Z,10.13
2017-11-22T18:12:57.597Z,13.17
2017-11-22T18:15:25.171Z,10.83
2017-11-22T18:17:52.483Z,11.03
2017-11-22T18:20:20.221Z,11.23
2017-11-22T18:22:47.623Z,11.60
2017-11-22T18:25:14.950Z,10.93
2017-11-22T18:27:42.637Z,10.93
2017-11-22T18:30:09.957Z,11.90
2017-11-22T18:32:37.269Z,12.80
2017-11-22T18:35:05.015Z,12.13
2017-11-22T18:37:32.659Z,12.67
2017-11-22T18:40:00.029Z,12.90
2017-11-22T18:42:27.333Z,14.47
2017-11-22T18:44:54.767Z,13.47
2017-11-22T18:47:22.409Z,14.70
2017-11-22T18:49:49.719Z,13.20
2017-11-22T18:52:17.114Z,12.80
2017-11-22T18:54:44.759Z,14.40
2017-11-22T18:57:12.085Z,13.90
2017-11-22T18:59:39.761Z,13.40
2017-11-22T19:02:07.164Z,14.20
2017-11-22T19:04:34.609Z,13.63
2017-11-22T19:07:02.263Z,13.20
2017-11-22T19:09:29.905Z,13.33
2017-11-22T19:11:57.229Z,13.90
2017-11-22T19:14:24.628Z,13.77
2017-11-22T19:16:51.969Z,14.10
2017-11-22T19:19:19.429Z,14.97
2017-11-22T19:21:46.737Z,13.87
2017-11-22T19:24:14.086Z,14.17
2017-11-22T19:26:41.418Z,13.10
2017-11-22T19:29:09.116Z,15.00
2017-11-22T19:31:36.522Z,14.57
2017-11-22T19:34:04.206Z,14.50
2017-11-22T19:36:31.824Z,13.60
2017-11-22T19:38:59.140Z,14.10
2017-11-22T19:41:26.459Z,13.57
2017-11-22T19:43:54.223Z,14.90
2017-11-22T19:46:21.570Z,13.63
2017-11-22T19:48:49.293Z,15.40
2017-11-22T19:51:16.981Z,14.93
2017-11-22T19:53:44.416Z,14.87
2017-11-22T19:56:12.115Z,14.20
2017-11-22T19:58:39.761Z,14.13
2017-11-22T20:01:07.398Z,14.50
2017-11-22T20:03:34.719Z,14.83
2017-11-22T20:06:02.346Z,14.80
2017-11-22T20:08:41.096Z,14.73
2017-11-22T20:11:08.749Z,14.90
2017-11-22T20:13:36.378Z,14.20
2017-11-22T20:16:03.719Z,14.73
2017-11-22T20:18:31.039Z,16.53
2017-11-22T20:20:58.417Z,15.87
2017-11-22T20:23:25.797Z,15.13
2017-11-22T20:25:53.126Z,16.27
2017-11-22T20:28:20.524Z,16.07
2017-11-22T20:30:48.176Z,15.00
2017-11-22T20:33:16.007Z,14.70
2017-11-22T20:35:43.431Z,15.00
2017-11-22T20:38:11.057Z,14.77
2017-11-22T20:40:38.390Z,15.00
2017-11-22T20:43:05.933Z,16.20
2017-11-22T20:45:33.616Z,16.20
2017-11-22T20:48:01.294Z,15.60
2017-11-22T20:50:28.607Z,15.20
2017-11-22T20:52:56.017Z,16.00
2017-11-22T20:55:23.669Z,16.43
2017-11-22T20:57:51.320Z,16.07
2017-11-22T21:00:18.647Z,16.43
2017-11-22T21:02:46.052Z,16.07
2017-11-22T21:05:13.691Z,16.03
2017-11-22T21:07:41.072Z,15.90
2017-11-22T21:10:08.705Z,16.60
2017-11-22T21:12:36.051Z,16.50
2017-11-22T21:15:03.731Z,15.60
2017-11-22T21:17:31.062Z,15.80
2017-11-22T21:19:58.447Z,16.57
2017-11-22T21:22:26.117Z,15.70
2017-11-22T21:24:54.431Z,15.17
2017-11-22T21:27:21.762Z,17.37
2017-11-22T21:29:49.377Z,16.60
2017-11-22T21:32:17.061Z,15.57
2017-11-22T21:34:44.717Z,16.90
2017-11-22T21:37:12.084Z,16.40
2017-11-22T21:39:39.742Z,17.10
2017-11-22T21:42:07.408Z,15.70
2017-11-22T21:44:35.062Z,16.03
2017-11-22T21:47:02.706Z,16.50
2017-11-22T21:49:30.052Z,16.90
2017-11-22T21:51:57.375Z,16.60
2017-11-22T21:54:24.721Z,17.93
2017-11-22T21:56:52.042Z,17.43
2017-11-22T21:59:19.836Z,16.03
2017-11-22T22:01:47.161Z,16.93
2017-11-22T22:04:14.870Z,17.07
2017-11-22T22:06:42.180Z,15.83
2017-11-22T22:09:09.841Z,17.50
2017-11-22T22:11:37.483Z,16.10
2017-11-22T22:14:04.846Z,16.60
2017-11-22T22:16:32.173Z,17.87
2017-11-22T22:18:59.856Z,17.93
2017-11-22T22:21:27.181Z,16.60
2017-11-22T22:23:54.611Z,16.20
2017-11-22T22:26:21.924Z,16.33
2017-11-22T22:28:49.275Z,16.50
2017-11-22T22:31:16.585Z,16.67
2017-11-22T22:33:44.303Z,15.70
2017-11-22T22:36:11.988Z,16.10
2017-11-22T22:38:39.628Z,15.40
2017-11-22T22:41:07.284Z,14.63
2017-11-22T22:43:34.619Z,16.00
2017-11-22T22:46:02.013Z,16.80
2017-11-22T22:48:29.700Z,15.93
2017-11-22T22:50:57.001Z,15.37
2017-11-22T22:53:24.371Z,16.60
2017-11-22T22:55:52.002Z,15.73
2017-11-22T22:58:19.398Z,14.50
2017-11-22T23:00:47.054Z,15.80
2017-11-22T23:03:14.414Z,16.80
2017-11-22T23:05:42.054Z,16.13
2017-11-22T23:08:09.373Z,15.53
2017-11-22T23:10:37.076Z,16.80
2017-11-22T23:13:04.409Z,16.80
2017-11-22T23:15:32.069Z,15.17
2017-11-22T23:17:59.750Z,15.70
2017-11-22T23:20:27.406Z,15.77
2017-11-22T23:22:54.822Z,15.47
2017-11-22T23:25:22.424Z,16.70
2017-11-22T23:27:49.761Z,16.00
2017-11-22T23:30:17.453Z,15.80
2017-11-22T23:32:45.105Z,15.70
2017-11-22T23:35:12.493Z,15.40
2017-11-22T23:37:39.801Z,15.33
2017-11-22T23:40:07.144Z,14.70
2017-11-22T23:42:34.545Z,15.43
2017-11-22T23:45:02.185Z,15.40
2017-11-22T23:47:29.890Z,15.93
2017-11-22T23:49:57.214Z,15.03
2017-11-22T23:52:24.759Z,15.10
2017-11-22T23:54:52.418Z,14.83
2017-11-22T23:57:20.067Z,14.53
2017-11-22T23:59:47.404Z,14.40
